createdAt,value
2022-09-23T00:01:14.903Z,98077.31
2022-09-23T00:03:49.004Z,98092.84
2022-09-23T00:06:23.226Z,98094.78
2022-09-23T00:08:51.884Z,98076.72
2022-09-23T00:11:26.411Z,98089.84
2022-09-23T00:13:58.259Z,98090.91
2022-09-23T00:16:34.100Z,98087.75
2022-09-23T00:19:02.339Z,98082.88
2022-09-23T00:21:29.808Z,98086.28
2022-09-23T00:23:56.496Z,98078.81
2022-09-23T00:26:24.187Z,98081.53
2022-09-23T00:28:51.558Z,98080.72
2022-09-23T00:31:25.798Z,98090.19
2022-09-23T00:34:01.246Z,98079.78
2022-09-23T00:36:32.017Z,98071.22
2022-09-23T00:38:59.027Z,98068.66
2022-09-23T00:41:26.285Z,98069.69
2022-09-23T00:44:01.085Z,98066.53
2022-09-23T00:46:43.287Z,98069.28
2022-09-23T00:49:22.504Z,98058.34
2022-09-23T00:52:08.659Z,98065.41
2022-09-23T00:54:35.771Z,98063.00
2022-09-23T00:57:05.215Z,98059.75
2022-09-23T00:59:33.262Z,98059.88
2022-09-23T01:02:02.947Z,98051.31
2022-09-23T01:04:30.296Z,98049.81
2022-09-23T01:06:56.998Z,98055.03
2022-09-23T01:09:25.101Z,98055.31
2022-09-23T01:12:34.182Z,98051.22
2022-09-23T01:15:22.917Z,98052.16
2022-09-23T01:18:45.079Z,98048.81
2022-09-23T01:21:36.072Z,98047.16
2022-09-23T01:24:37.710Z,98037.00
2022-09-23T01:27:37.978Z,98034.72
2022-09-23T01:30:41.445Z,98036.78
2022-09-23T01:33:40.422Z,98036.31
2022-09-23T01:36:29.897Z,98042.28
2022-09-23T01:39:08.251Z,98033.66
2022-09-23T01:42:26.874Z,98029.41
2022-09-23T01:45:02.787Z,98033.06
2022-09-23T01:47:41.757Z,98032.31
2022-09-23T01:50:38.120Z,98026.38
2022-09-23T01:53:23.626Z,98029.78
2022-09-23T01:55:58.626Z,98029.78
2022-09-23T01:58:42.268Z,98032.34
2022-09-23T02:01:17.272Z,98029.03
2022-09-23T02:03:59.554Z,98030.75
2022-09-23T02:06:39.986Z,98025.69
2022-09-23T02:09:15.631Z,98025.00
2022-09-23T02:11:52.367Z,98015.78
2022-09-23T02:14:31.614Z,98025.28
2022-09-23T02:17:08.412Z,98022.72
2022-09-23T02:19:47.754Z,98024.69
2022-09-23T02:22:29.723Z,98023.28
2022-09-23T02:24:58.211Z,98019.28
2022-09-23T02:27:50.644Z,98020.19
2022-09-23T02:30:27.070Z,98028.00
2022-09-23T02:33:11.723Z,98025.78
2022-09-23T02:36:15.028Z,98017.97
2022-09-23T02:38:52.955Z,98019.63
2022-09-23T02:41:47.874Z,98023.94
2022-09-23T02:44:19.704Z,98020.69
2022-09-23T02:46:46.940Z,98015.69
2022-09-23T02:49:22.079Z,98016.69
2022-09-23T02:51:52.304Z,98009.81
2022-09-23T02:54:25.587Z,98015.84
2022-09-23T02:56:53.374Z,98009.81
2022-09-23T02:59:22.919Z,98002.00
2022-09-23T03:02:27.533Z,97999.34
2022-09-23T03:05:18.036Z,97996.09
2022-09-23T03:08:21.968Z,97999.66
2022-09-23T03:11:06.815Z,98008.25
2022-09-23T03:13:48.942Z,98000.63
2022-09-23T03:16:32.349Z,98006.75
2022-09-23T03:19:19.572Z,98002.81
2022-09-23T03:22:00.901Z,98004.75
2022-09-23T03:24:34.462Z,97999.75
2022-09-23T03:27:13.368Z,97994.69
2022-09-23T03:29:53.289Z,97994.75
2022-09-23T03:32:27.874Z,97997.50
2022-09-23T03:34:58.970Z,97987.22
2022-09-23T03:37:33.893Z,97994.03
2022-09-23T03:40:12.346Z,98001.13
2022-09-23T03:42:39.962Z,97990.94
2022-09-23T03:45:16.987Z,97988.34
2022-09-23T03:47:44.401Z,97991.69
2022-09-23T03:50:13.321Z,97991.59
2022-09-23T03:52:40.727Z,97984.13
2022-09-23T03:55:08.514Z,97991.19
2022-09-23T03:57:36.517Z,97996.47
2022-09-23T04:00:06.890Z,97998.22
2022-09-23T04:02:34.053Z,97993.16
2022-09-23T04:05:01.076Z,98005.31
2022-09-23T04:07:28.162Z,97993.44
2022-09-23T04:09:55.692Z,97985.72
2022-09-23T04:12:22.887Z,97985.72
2022-09-23T04:14:49.559Z,97980.59
2022-09-23T04:17:16.559Z,97979.75
2022-09-23T04:19:43.559Z,97982.31
2022-09-23T04:22:10.382Z,97979.88
2022-09-23T04:24:37.221Z,97983.41
2022-09-23T04:27:04.243Z,97980.09
2022-09-23T04:29:30.957Z,97982.66
2022-09-23T04:31:57.728Z,97987.72
2022-09-23T04:34:24.497Z,97974.94
2022-09-23T04:36:51.203Z,97981.00
2022-09-23T04:39:18.383Z,97982.81
2022-09-23T04:41:46.208Z,97973.44
2022-09-23T04:44:13.946Z,97979.47
2022-09-23T04:46:47.913Z,97976.00
2022-09-23T04:49:15.955Z,97969.31
2022-09-23T04:51:43.444Z,97971.88
2022-09-23T04:54:12.076Z,97976.94
2022-09-23T04:56:39.628Z,97981.25
2022-09-23T04:59:07.416Z,97975.25
2022-09-23T05:01:36.099Z,97972.72
2022-09-23T05:04:07.284Z,97968.53
2022-09-23T05:06:35.781Z,97969.44
2022-09-23T05:09:07.220Z,97976.25
2022-09-23T05:11:37.029Z,97973.84
2022-09-23T05:14:03.710Z,97972.16
2022-09-23T05:16:30.614Z,97970.34
2022-09-23T05:18:57.962Z,97973.84
2022-09-23T05:21:33.594Z,97973.75
2022-09-23T05:24:00.677Z,97976.34
2022-09-23T05:26:31.993Z,97973.75
2022-09-23T05:28:59.941Z,97971.94
2022-09-23T05:31:29.834Z,97977.00
2022-09-23T05:34:03.495Z,97982.09
2022-09-23T05:36:38.323Z,97972.66
2022-09-23T05:39:07.033Z,97980.31
2022-09-23T05:41:34.066Z,97983.50
2022-09-23T05:44:01.833Z,97981.50
2022-09-23T05:46:30.533Z,97975.31
2022-09-23T05:49:02.539Z,97976.66
2022-09-23T05:51:31.782Z,97974.75
2022-09-23T05:54:02.705Z,97983.91
2022-09-23T05:56:30.260Z,97977.72
2022-09-23T05:59:00.192Z,97969.03
2022-09-23T06:01:34.683Z,97979.91
2022-09-23T06:04:04.664Z,97980.56
2022-09-23T06:06:41.378Z,97981.00
2022-09-23T06:09:15.861Z,97979.69
2022-09-23T06:11:50.698Z,97979.38
2022-09-23T06:14:17.498Z,97985.75
2022-09-23T06:16:44.800Z,97987.00
2022-09-23T06:19:11.585Z,97987.31
2022-09-23T06:21:41.468Z,97984.97
2022-09-23T06:24:09.816Z,97987.69
2022-09-23T06:26:38.376Z,97987.25
2022-09-23T06:29:14.450Z,97989.13
2022-09-23T06:31:44.678Z,97985.00
2022-09-23T06:34:14.428Z,97982.47
2022-09-23T06:36:45.434Z,97985.06
2022-09-23T06:39:14.967Z,97980.69
2022-09-23T06:41:42.146Z,97982.47
2022-09-23T06:44:09.169Z,97983.34
2022-09-23T06:46:36.939Z,97979.81
2022-09-23T06:49:04.161Z,97976.25
2022-09-23T06:51:33.226Z,97984.78
2022-09-23T06:54:00.187Z,97981.34
2022-09-23T06:56:27.046Z,97980.47
2022-09-23T06:58:54.602Z,97981.25
2022-09-23T07:01:22.961Z,97977.59
2022-09-23T07:03:49.858Z,97982.41
2022-09-23T07:06:17.656Z,97970.91
2022-09-23T07:08:51.106Z,97973.91
2022-09-23T07:11:24.478Z,97970.75
2022-09-23T07:13:51.313Z,97970.16
2022-09-23T07:16:18.429Z,97972.06
2022-09-23T07:18:45.999Z,97968.75
2022-09-23T07:21:17.502Z,97967.06
2022-09-23T07:23:47.595Z,97975.69
2022-09-23T07:26:16.134Z,97971.69
2022-09-23T07:28:43.442Z,97970.00
2022-09-23T07:31:15.523Z,97968.31
2022-09-23T07:33:44.094Z,97973.56
2022-09-23T07:36:17.323Z,97964.69
2022-09-23T07:38:46.184Z,97964.59
2022-09-23T07:41:17.749Z,97962.13
2022-09-23T07:43:46.208Z,97950.63
2022-09-23T07:46:17.622Z,97957.56
2022-09-23T07:48:46.039Z,97967.78
2022-09-23T07:51:21.434Z,97961.44
2022-09-23T07:53:51.083Z,97959.19
2022-09-23T07:56:19.781Z,97959.75
2022-09-23T07:58:59.837Z,97951.88
2022-09-23T08:01:39.475Z,97953.91
2022-09-23T08:04:14.749Z,97946.75
2022-09-23T08:06:43.918Z,97015.19
2022-09-23T08:09:11.649Z,97954.06
2022-09-23T08:11:42.414Z,97956.38
2022-09-23T08:14:13.401Z,97958.50
2022-09-23T08:16:43.925Z,97958.84
2022-09-23T08:19:11.220Z,97961.09
2022-09-23T08:21:40.601Z,97954.25
2022-09-23T08:24:12.490Z,97947.47
2022-09-23T08:26:39.275Z,97953.00
2022-09-23T08:29:09.643Z,97948.50
2022-09-23T08:31:36.350Z,97947.44
2022-09-23T08:34:03.576Z,97942.75
2022-09-23T08:36:32.023Z,97939.56
2022-09-23T08:38:58.728Z,97942.03
2022-09-23T08:41:58.986Z,97931.00
2022-09-23T08:44:37.565Z,97934.66
2022-09-23T08:47:24.960Z,97929.09
2022-09-23T08:50:07.254Z,97929.59
2022-09-23T08:52:55.806Z,97934.69
2022-09-23T08:55:42.330Z,97926.66
2022-09-23T08:58:25.409Z,97928.03
2022-09-23T09:01:27.516Z,97923.91
2022-09-23T09:03:58.742Z,97928.97
2022-09-23T09:06:52.522Z,97925.38
2022-09-23T09:09:36.327Z,97925.72
2022-09-23T09:13:00.118Z,97916.19
2022-09-23T09:15:28.347Z,97920.41
2022-09-23T09:18:13.160Z,97909.44
2022-09-23T09:21:09.841Z,97911.41
2022-09-23T09:23:59.521Z,97904.44
2022-09-23T09:26:33.121Z,97903.28
2022-09-23T09:29:35.015Z,97903.50
2022-09-23T09:32:14.970Z,97899.69
2022-09-23T09:34:56.417Z,97895.59
2022-09-23T09:37:36.612Z,97890.66
2022-09-23T09:40:04.102Z,97889.09
2022-09-23T09:42:42.710Z,97890.47
2022-09-23T09:45:41.235Z,97884.13
2022-09-23T09:48:29.303Z,97886.31
2022-09-23T09:50:56.041Z,97895.38
2022-09-23T09:53:35.535Z,97885.06
2022-09-23T09:56:16.228Z,97883.44
2022-09-23T09:58:52.007Z,97874.56
2022-09-23T10:01:29.917Z,97867.38
2022-09-23T10:04:05.225Z,97866.72
2022-09-23T10:06:35.723Z,97860.16
2022-09-23T10:09:08.430Z,97860.88
2022-09-23T10:11:35.440Z,97856.63
2022-09-23T10:14:19.532Z,97859.94
2022-09-23T10:17:05.049Z,97849.38
2022-09-23T10:19:34.529Z,97853.84
2022-09-23T10:22:08.317Z,97852.69
2022-09-23T10:24:38.672Z,97845.06
2022-09-23T10:27:11.716Z,97849.50
2022-09-23T10:29:48.146Z,97841.63
2022-09-23T10:32:30.170Z,97836.56
2022-09-23T10:35:08.931Z,97842.28
2022-09-23T10:37:40.941Z,97839.31
2022-09-23T10:40:47.887Z,97839.19
2022-09-23T10:44:16.629Z,97826.00
2022-09-23T10:47:25.153Z,97829.66
2022-09-23T10:50:32.301Z,97821.09
2022-09-23T10:53:12.538Z,97811.16
2022-09-23T10:56:12.968Z,97821.19
2022-09-23T10:59:30.149Z,97808.41
2022-09-23T11:02:07.603Z,97802.78
2022-09-23T11:05:23.393Z,97799.72
2022-09-23T11:08:36.338Z,97802.38
2022-09-23T11:11:28.973Z,97788.34
2022-09-23T11:14:28.103Z,97792.34
2022-09-23T11:17:14.598Z,97795.88
2022-09-23T11:20:27.801Z,97792.41
2022-09-23T11:23:26.407Z,97792.53
2022-09-23T11:26:42.004Z,97775.81
2022-09-23T11:29:55.128Z,97775.28
2022-09-23T11:32:33.416Z,97772.59
2022-09-23T11:35:20.399Z,97770.03
2022-09-23T11:37:55.314Z,97765.91
2022-09-23T11:40:32.960Z,97761.31
2022-09-23T11:43:21.635Z,97761.78
2022-09-23T11:46:10.189Z,97749.50
2022-09-23T11:49:02.831Z,97746.50
2022-09-23T11:51:44.701Z,97751.41
2022-09-23T11:54:27.883Z,97735.13
2022-09-23T11:57:02.636Z,97729.22
2022-09-23T11:59:41.492Z,97732.25
2022-09-23T12:02:30.451Z,97730.22
2022-09-23T12:05:08.185Z,97725.50
2022-09-23T12:08:06.363Z,97724.34
2022-09-23T12:11:14.493Z,97720.50
2022-09-23T12:14:07.364Z,97725.38
2022-09-23T12:16:53.919Z,97724.59
2022-09-23T12:20:04.480Z,97712.16
2022-09-23T12:23:33.411Z,97722.75
2022-09-23T12:26:17.059Z,97723.69
2022-09-23T12:28:49.949Z,97712.59
2022-09-23T12:31:21.996Z,97718.34
2022-09-23T12:33:52.220Z,97723.56
2022-09-23T12:36:34.667Z,97717.84
2022-09-23T12:39:29.791Z,97708.63
2022-09-23T12:42:10.843Z,97698.69
2022-09-23T12:44:41.389Z,97691.94
2022-09-23T12:47:25.757Z,97678.47
2022-09-23T12:49:54.664Z,97672.28
2022-09-23T12:52:33.429Z,97672.00
2022-09-23T12:55:23.235Z,94964.34
2022-09-23T12:57:50.142Z,97665.34
2022-09-23T13:00:30.926Z,97661.00
2022-09-23T13:03:19.281Z,97662.41
2022-09-23T13:06:19.050Z,97663.53
2022-09-23T13:08:47.811Z,97652.78
2022-09-23T13:11:29.625Z,97650.91
2022-09-23T13:14:01.968Z,97654.16
2022-09-23T13:16:41.449Z,97645.63
2022-09-23T13:19:26.430Z,97649.50
2022-09-23T13:21:53.304Z,97648.28
2022-09-23T13:24:22.926Z,97645.91
2022-09-23T13:27:30.010Z,97635.28
2022-09-23T13:30:05.310Z,97641.78
2022-09-23T13:32:39.420Z,97623.78
2022-09-23T13:35:24.612Z,97628.47
2022-09-23T13:37:51.312Z,97627.97
2022-09-23T13:40:26.691Z,97627.97
2022-09-23T13:43:06.183Z,97618.28
2022-09-23T13:45:39.820Z,97618.75
2022-09-23T13:48:13.250Z,97609.16
2022-09-23T13:50:44.956Z,97621.88
2022-09-23T13:53:20.878Z,97611.69
2022-09-23T13:55:52.244Z,97621.28
2022-09-23T13:58:23.761Z,97601.81
2022-09-23T14:00:51.506Z,95339.47
2022-09-23T14:03:25.017Z,97601.50
2022-09-23T14:05:54.902Z,97598.34
2022-09-23T14:08:23.433Z,97613.03
2022-09-23T14:10:50.706Z,97606.06
2022-09-23T14:13:30.038Z,97606.06
2022-09-23T14:16:00.169Z,97596.81
2022-09-23T14:18:45.198Z,97598.56
2022-09-23T14:21:34.853Z,97605.88
2022-09-23T14:24:24.914Z,97605.88
2022-09-23T14:27:06.541Z,97590.03
2022-09-23T14:29:40.825Z,97578.66
2022-09-23T14:32:21.107Z,97578.31
2022-09-23T14:34:59.487Z,97572.50
2022-09-23T14:37:56.419Z,97562.06
2022-09-23T14:40:36.793Z,97566.84
2022-09-23T14:43:24.911Z,97562.47
2022-09-23T14:45:58.301Z,97568.22
2022-09-23T14:48:33.124Z,97560.91
2022-09-23T14:51:13.201Z,97545.44
2022-09-23T14:53:49.089Z,97547.59
2022-09-23T14:56:25.426Z,97547.63
2022-09-23T14:58:58.592Z,97546.97
2022-09-23T15:01:31.287Z,97545.94
2022-09-23T15:04:23.930Z,97553.91
2022-09-23T15:07:09.364Z,97544.22
2022-09-23T15:09:40.527Z,97542.59
2022-09-23T15:12:21.421Z,97546.00
2022-09-23T15:14:56.500Z,97536.75
2022-09-23T15:17:23.115Z,97536.94
2022-09-23T15:19:56.682Z,97537.06
2022-09-23T15:22:25.239Z,97528.25
2022-09-23T15:24:54.809Z,97531.78
2022-09-23T15:27:32.159Z,97523.56
2022-09-23T15:30:18.467Z,97516.44
2022-09-23T15:32:46.594Z,97518.88
2022-09-23T15:35:19.613Z,97525.34
2022-09-23T15:37:49.298Z,97529.53
2022-09-23T15:40:22.772Z,97530.44
2022-09-23T15:42:56.034Z,97521.03
2022-09-23T15:45:35.119Z,97516.66
2022-09-23T15:48:13.164Z,97526.88
2022-09-23T15:50:41.143Z,97526.88
2022-09-23T15:53:14.695Z,97525.13
2022-09-23T15:55:41.549Z,97516.50
2022-09-23T15:58:08.355Z,97503.34
2022-09-23T16:00:36.428Z,97518.19
2022-09-23T16:03:06.493Z,97506.81
2022-09-23T16:05:38.903Z,97512.41
2022-09-23T16:08:09.579Z,97512.78
2022-09-23T16:10:37.584Z,97509.22
2022-09-23T16:13:10.057Z,97510.63
2022-09-23T16:15:38.972Z,97520.44
2022-09-23T16:18:08.018Z,97511.50
2022-09-23T16:20:38.481Z,97511.56
2022-09-23T16:23:13.994Z,97524.28
2022-09-23T16:25:40.796Z,97519.50
2022-09-23T16:28:07.642Z,97522.91
2022-09-23T16:30:34.689Z,97501.88
2022-09-23T16:33:01.944Z,97437.22
2022-09-23T16:35:33.563Z,97437.22
2022-09-23T16:38:04.798Z,97510.66
2022-09-23T16:40:32.473Z,97516.22
2022-09-23T16:43:02.039Z,97511.06
2022-09-23T16:45:28.776Z,97506.28
2022-09-23T16:47:56.376Z,97377.69
2022-09-23T16:50:23.956Z,97504.69
2022-09-23T16:52:57.076Z,97510.19
2022-09-23T16:55:27.056Z,97510.88
2022-09-23T16:57:54.808Z,97510.97
2022-09-23T17:00:40.539Z,97514.16
2022-09-23T17:03:28.491Z,97516.69
2022-09-23T17:05:55.228Z,97512.28
2022-09-23T17:08:22.120Z,97512.97
2022-09-23T17:10:58.503Z,97517.94
2022-09-23T17:13:28.131Z,97526.97
2022-09-23T17:15:55.716Z,97518.66
2022-09-23T17:18:22.604Z,97515.72
2022-09-23T17:21:06.355Z,97516.91
2022-09-23T17:23:36.451Z,97518.22
2022-09-23T17:26:05.360Z,97514.31
2022-09-23T17:28:32.237Z,97517.41
2022-09-23T17:31:02.589Z,97515.97
2022-09-23T17:33:32.250Z,97522.19
2022-09-23T17:36:00.126Z,97524.28
2022-09-23T17:38:29.473Z,97522.66
2022-09-23T17:40:59.261Z,97521.44
2022-09-23T17:43:26.755Z,97529.16
2022-09-23T17:45:57.131Z,97525.63
2022-09-23T17:48:25.169Z,97533.31
2022-09-23T17:50:58.997Z,97531.41
2022-09-23T17:53:26.136Z,97532.94
2022-09-23T17:56:03.324Z,97526.47
2022-09-23T17:58:36.238Z,97531.16
2022-09-23T18:01:04.888Z,95855.44
2022-09-23T18:03:32.046Z,97539.81
2022-09-23T18:06:18.797Z,97538.00
2022-09-23T18:08:48.548Z,97531.72
2022-09-23T18:11:28.957Z,97533.19
2022-09-23T18:14:02.423Z,97528.50
2022-09-23T18:16:39.272Z,97522.16
2022-09-23T18:19:08.002Z,97533.84
2022-09-23T18:21:39.568Z,97533.66
2022-09-23T18:24:30.719Z,97537.78
2022-09-23T18:26:57.215Z,97524.59
2022-09-23T18:29:23.897Z,97525.25
2022-09-23T18:31:50.917Z,97522.22
2022-09-23T18:34:18.456Z,97524.50
2022-09-23T18:36:45.335Z,97520.53
2022-09-23T18:39:12.328Z,97515.59
2022-09-23T18:41:39.447Z,97519.44
2022-09-23T18:44:06.385Z,97523.22
2022-09-23T18:46:33.163Z,97524.19
2022-09-23T18:49:19.140Z,97522.81
2022-09-23T18:51:57.353Z,97525.25
2022-09-23T18:54:27.504Z,97529.34
2022-09-23T18:56:55.058Z,97524.91
2022-09-23T18:59:27.950Z,96335.22
2022-09-23T19:01:55.890Z,97526.34
2022-09-23T19:04:25.749Z,97516.19
2022-09-23T19:06:54.741Z,97528.53
2022-09-23T19:09:21.646Z,97522.22
2022-09-23T19:11:52.028Z,97526.00
2022-09-23T19:14:19.276Z,97524.50
2022-09-23T19:16:48.745Z,97530.91
2022-09-23T19:19:15.506Z,97526.06
2022-09-23T19:21:42.202Z,97523.72
2022-09-23T19:24:14.384Z,97522.31
2022-09-23T19:26:42.682Z,97522.56
2022-09-23T19:29:19.461Z,97519.50
2022-09-23T19:31:46.446Z,97521.53
2022-09-23T19:34:16.393Z,97528.19
2022-09-23T19:36:46.234Z,97527.88
2022-09-23T19:39:21.029Z,97529.78
2022-09-23T19:41:49.657Z,97533.84
2022-09-23T19:44:16.951Z,97528.91
2022-09-23T19:46:51.702Z,97525.84
2022-09-23T19:49:21.787Z,97520.88
2022-09-23T19:51:49.295Z,97521.81
2022-09-23T19:54:20.324Z,97530.84
2022-09-23T19:56:48.548Z,97533.81
2022-09-23T19:59:18.863Z,97538.44
2022-09-23T20:01:48.080Z,97532.66
2022-09-23T20:04:16.320Z,97525.09
2022-09-23T20:06:43.677Z,97524.41
2022-09-23T20:09:10.399Z,97532.44
2022-09-23T20:11:37.361Z,97529.38
2022-09-23T20:14:05.970Z,97532.13
2022-09-23T20:16:36.596Z,97534.84
2022-09-23T20:19:05.426Z,97528.81
2022-09-23T20:21:33.636Z,97532.38
2022-09-23T20:24:01.439Z,97522.19
2022-09-23T20:26:46.870Z,97522.31
2022-09-23T20:29:13.600Z,97520.66
2022-09-23T20:31:41.395Z,97523.38
2022-09-23T20:34:10.377Z,97523.38
2022-09-23T20:36:39.094Z,97513.13
2022-09-23T20:39:06.771Z,97515.59
2022-09-23T20:41:37.493Z,97505.44
2022-09-23T20:44:07.936Z,97498.59
2022-09-23T20:46:35.612Z,97507.47
2022-09-23T20:49:03.558Z,97506.75
2022-09-23T20:51:32.986Z,97512.19
2022-09-23T20:53:59.829Z,97511.38
2022-09-23T20:56:27.440Z,97507.25
2022-09-23T20:58:54.281Z,97521.44
2022-09-23T21:01:21.852Z,97510.31
2022-09-23T21:03:52.184Z,97518.25
2022-09-23T21:06:19.547Z,97515.19
2022-09-23T21:08:46.573Z,97518.03
2022-09-23T21:11:17.785Z,97525.84
2022-09-23T21:13:50.319Z,97513.09
2022-09-23T21:16:21.903Z,97506.47
2022-09-23T21:18:50.400Z,97506.94
2022-09-23T21:21:19.507Z,97512.84
2022-09-23T21:23:47.397Z,97507.22
2022-09-23T21:26:20.439Z,97514.53
2022-09-23T21:28:53.594Z,97512.25
2022-09-23T21:31:25.406Z,97507.44
2022-09-23T21:34:01.579Z,97512.63
2022-09-23T21:36:37.391Z,97505.75
2022-09-23T21:39:09.112Z,97506.81
2022-09-23T21:41:36.803Z,97508.72
2022-09-23T21:44:04.903Z,97508.81
2022-09-23T21:46:33.734Z,97514.97
2022-09-23T21:49:03.246Z,97514.97
2022-09-23T21:51:35.110Z,97513.19
2022-09-23T21:54:01.909Z,97522.88
2022-09-23T21:56:32.659Z,97509.78
2022-09-23T21:58:59.868Z,97510.72
2022-09-23T22:01:38.758Z,97512.38
2022-09-23T22:04:16.879Z,97514.38
2022-09-23T22:06:45.107Z,97500.47
2022-09-23T22:09:19.166Z,97502.22
2022-09-23T22:12:05.111Z,97499.13
2022-09-23T22:14:32.630Z,97491.47
2022-09-23T22:17:05.250Z,97494.06
2022-09-23T22:19:36.601Z,97486.16
2022-09-23T22:22:13.350Z,97492.19
2022-09-23T22:24:47.924Z,97487.09
2022-09-23T22:27:18.681Z,97490.53
2022-09-23T22:30:04.020Z,97489.94
2022-09-23T22:32:46.071Z,97486.16
2022-09-23T22:35:17.538Z,97488.75
2022-09-23T22:37:44.991Z,97487.84
2022-09-23T22:40:14.713Z,97488.53
2022-09-23T22:42:42.750Z,97485.00
2022-09-23T22:45:11.632Z,97485.81
2022-09-23T22:47:40.931Z,97486.41
2022-09-23T22:50:09.209Z,97490.66
2022-09-23T22:52:36.420Z,97495.25
2022-09-23T22:55:04.888Z,97488.53
2022-09-23T22:57:31.590Z,97491.13
2022-09-23T22:59:58.293Z,97488.53
2022-09-23T23:02:25.041Z,97496.44
2022-09-23T23:04:51.834Z,97499.50
2022-09-23T23:07:21.020Z,97494.53
2022-09-23T23:09:52.214Z,97503.41
2022-09-23T23:12:20.462Z,97504.34
2022-09-23T23:14:48.995Z,97492.31
2022-09-23T23:17:16.421Z,97498.22
2022-09-23T23:19:43.101Z,97493.03
2022-09-23T23:22:09.968Z,97495.00
2022-09-23T23:24:36.731Z,97488.16
2022-09-23T23:27:03.508Z,97500.56
2022-09-23T23:29:30.201Z,97504.31
2022-09-23T23:31:56.899Z,97499.25
2022-09-23T23:34:23.603Z,97496.66
2022-09-23T23:36:56.445Z,97501.84
2022-09-23T23:39:25.101Z,97491.47
2022-09-23T23:41:56.586Z,97490.84
2022-09-23T23:44:25.342Z,97489.19
2022-09-23T23:46:53.614Z,97482.38
2022-09-23T23:49:21.409Z,97484.00
2022-09-23T23:51:48.458Z,97489.44
2022-09-23T23:54:15.632Z,97484.38
2022-09-23T23:56:42.516Z,97483.53
2022-09-23T23:59:09.350Z,97479.19
